sensor_id;sensor_type;location;lat;lon;timestamp;P1;durP1;ratioP1;P2;durP2;ratioP2
20945;SDS011;10632;51.276;7.116;2024-03-23T00:54:31;6.05;;;0.98;;
20945;SDS011;10632;51.276;7.116;2024-03-23T00:56:57;4.40;;;0.60;;
20945;SDS011;10632;51.276;7.116;2024-03-23T00:59:24;4.18;;;0.80;;
20945;SDS011;10632;51.276;7.116;2024-03-23T01:01:52;2.50;;;0.98;;
20945;SDS011;10632;51.276;7.116;2024-03-23T01:04:19;4.13;;;0.82;;
20945;SDS011;10632;51.276;7.116;2024-03-23T01:06:45;3.20;;;0.57;;
20945;SDS011;10632;51.276;7.116;2024-03-23T01:09:12;2.97;;;0.60;;
20945;SDS011;10632;51.276;7.116;2024-03-23T01:11:41;3.22;;;0.85;;
20945;SDS011;10632;51.276;7.116;2024-03-23T01:14:08;9.00;;;1.02;;
20945;SDS011;10632;51.276;7.116;2024-03-23T01:16:34;2.55;;;0.63;;
20945;SDS011;10632;51.276;7.116;2024-03-23T01:19:01;0.90;;;0.70;;
20945;SDS011;10632;51.276;7.116;2024-03-23T01:21:27;3.13;;;0.98;;
20945;SDS011;10632;51.276;7.116;2024-03-23T01:23:54;0.75;;;0.38;;
20945;SDS011;10632;51.276;7.116;2024-03-23T01:26:20;5.18;;;1.10;;
20945;SDS011;10632;51.276;7.116;2024-03-23T01:28:48;3.20;;;1.52;;
20945;SDS011;10632;51.276;7.116;2024-03-23T01:31:14;5.75;;;0.77;;
20945;SDS011;10632;51.276;7.116;2024-03-23T01:33:42;3.50;;;0.68;;
20945;SDS011;10632;51.276;7.116;2024-03-23T01:36:08;11.30;;;1.02;;
20945;SDS011;10632;51.276;7.116;2024-03-23T01:38:35;8.20;;;1.42;;
20945;SDS011;10632;51.276;7.116;2024-03-23T01:41:01;1.80;;;0.73;;
20945;SDS011;10632;51.276;7.116;2024-03-23T01:43:28;5.43;;;1.00;;
20945;SDS011;10632;51.276;7.116;2024-03-23T01:45:56;2.03;;;0.68;;
20945;SDS011;10632;51.276;7.116;2024-03-23T01:48:23;4.18;;;0.85;;
20945;SDS011;10632;51.276;7.116;2024-03-23T01:50:49;5.72;;;0.55;;
20945;SDS011;10632;51.276;7.116;2024-03-23T01:53:16;0.88;;;0.47;;
20945;SDS011;10632;51.276;7.116;2024-03-23T01:55:44;2.22;;;0.57;;
20945;SDS011;10632;51.276;7.116;2024-03-23T01:58:11;0.25;;;0.22;;
20945;SDS011;10632;51.276;7.116;2024-03-23T02:00:37;0.50;;;0.43;;
20945;SDS011;10632;51.276;7.116;2024-03-23T02:05:50;1.58;;;0.60;;
20945;SDS011;10632;51.276;7.116;2024-03-23T02:08:17;1.95;;;0.20;;
20945;SDS011;10632;51.276;7.116;2024-03-23T02:10:45;1.92;;;0.30;;
20945;SDS011;10632;51.276;7.116;2024-03-23T02:13:14;0.10;;;0.10;;
20945;SDS011;10632;51.276;7.116;2024-03-23T02:15:40;0.10;;;0.10;;
20945;SDS011;10632;51.276;7.116;2024-03-23T02:18:07;0.47;;;0.38;;
20945;SDS011;10632;51.276;7.116;2024-03-23T02:20:35;11.43;;;0.32;;
20945;SDS011;10632;51.276;7.116;2024-03-23T02:23:03;0.45;;;0.10;;
20945;SDS011;10632;51.276;7.116;2024-03-23T02:25:31;0.00;;;0.00;;
20945;SDS011;10632;51.276;7.116;2024-03-23T02:27:58;6.70;;;1.23;;
20945;SDS011;10632;51.276;7.116;2024-03-23T02:30:24;0.30;;;0.10;;
20945;SDS011;10632;51.276;7.116;2024-03-23T02:32:51;0.35;;;0.30;;
20945;SDS011;10632;51.276;7.116;2024-03-23T02:35:17;4.38;;;0.35;;
20945;SDS011;10632;51.276;7.116;2024-03-23T02:37:45;0.13;;;0.10;;
20945;SDS011;10632;51.276;7.116;2024-03-23T02:40:13;0.05;;;0.05;;
20945;SDS011;10632;51.276;7.116;2024-03-23T02:42:40;1.00;;;0.32;;
20945;SDS011;10632;51.276;7.116;2024-03-23T02:45:06;0.00;;;0.00;;
20945;SDS011;10632;51.276;7.116;2024-03-23T02:47:33;3.22;;;0.60;;
20945;SDS011;10632;51.276;7.116;2024-03-23T02:50:00;0.43;;;0.28;;
20945;SDS011;10632;51.276;7.116;2024-03-23T02:52:26;0.17;;;0.10;;
20945;SDS011;10632;51.276;7.116;2024-03-23T02:54:53;1.20;;;0.35;;
20945;SDS011;10632;51.276;7.116;2024-03-23T02:57:20;0.80;;;0.25;;
20945;SDS011;10632;51.276;7.116;2024-03-23T02:59:47;2.38;;;0.90;;
20945;SDS011;10632;51.276;7.116;2024-03-23T03:02:13;1.17;;;0.30;;
20945;SDS011;10632;51.276;7.116;2024-03-23T03:04:42;1.60;;;0.38;;
20945;SDS011;10632;51.276;7.116;2024-03-23T03:07:08;0.70;;;0.45;;
20945;SDS011;10632;51.276;7.116;2024-03-23T03:09:35;4.25;;;0.30;;
20945;SDS011;10632;51.276;7.116;2024-03-23T03:12:04;1.67;;;0.47;;
20945;SDS011;10632;51.276;7.116;2024-03-23T03:14:32;5.22;;;0.55;;
20945;SDS011;10632;51.276;7.116;2024-03-23T03:16:58;2.20;;;0.20;;
20945;SDS011;10632;51.276;7.116;2024-03-23T03:19:26;0.10;;;0.10;;
20945;SDS011;10632;51.276;7.116;2024-03-23T03:21:52;13.13;;;0.98;;
20945;SDS011;10632;51.276;7.116;2024-03-23T03:24:20;3.10;;;0.75;;
20945;SDS011;10632;51.276;7.116;2024-03-23T03:26:46;1.25;;;0.30;;
20945;SDS011;10632;51.276;7.116;2024-03-23T03:29:14;0.73;;;0.25;;
20945;SDS011;10632;51.276;7.116;2024-03-23T03:31:42;0.40;;;0.17;;
20945;SDS011;10632;51.276;7.116;2024-03-23T03:34:09;0.77;;;0.20;;
20945;SDS011;10632;51.276;7.116;2024-03-23T03:36:35;2.55;;;0.50;;
20945;SDS011;10632;51.276;7.116;2024-03-23T03:39:02;0.30;;;0.10;;
20945;SDS011;10632;51.276;7.116;2024-03-23T03:41:28;0.17;;;0.03;;
20945;SDS011;10632;51.276;7.116;2024-03-23T03:43:55;0.57;;;0.20;;
20945;SDS011;10632;51.276;7.116;2024-03-23T03:46:21;0.32;;;0.15;;
20945;SDS011;10632;51.276;7.116;2024-03-23T03:48:49;0.70;;;0.30;;
20945;SDS011;10632;51.276;7.116;2024-03-23T03:51:15;2.00;;;0.67;;
20945;SDS011;10632;51.276;7.116;2024-03-23T03:53:42;0.73;;;0.30;;
20945;SDS011;10632;51.276;7.116;2024-03-23T03:56:09;3.60;;;0.63;;
20945;SDS011;10632;51.276;7.116;2024-03-23T03:58:37;2.20;;;0.30;;
20945;SDS011;10632;51.276;7.116;2024-03-23T04:01:03;3.20;;;0.65;;
20945;SDS011;10632;51.276;7.116;2024-03-23T04:03:30;0.80;;;0.28;;
20945;SDS011;10632;51.276;7.116;2024-03-23T04:06:00;2.83;;;0.73;;
20945;SDS011;10632;51.276;7.116;2024-03-23T04:08:28;4.80;;;0.63;;
20945;SDS011;10632;51.276;7.116;2024-03-23T04:10:54;2.38;;;0.25;;
20945;SDS011;10632;51.276;7.116;2024-03-23T04:13:24;0.73;;;0.40;;
20945;SDS011;10632;51.276;7.116;2024-03-23T04:15:53;2.22;;;0.40;;
20945;SDS011;10632;51.276;7.116;2024-03-23T04:18:21;2.57;;;0.60;;
20945;SDS011;10632;51.276;7.116;2024-03-23T04:20:48;1.77;;;0.47;;
20945;SDS011;10632;51.276;7.116;2024-03-23T04:23:16;1.50;;;0.60;;
20945;SDS011;10632;51.276;7.116;2024-03-23T04:25:42;1.20;;;0.38;;
20945;SDS011;10632;51.276;7.116;2024-03-23T04:28:10;3.20;;;0.70;;
20945;SDS011;10632;51.276;7.116;2024-03-23T04:30:36;4.80;;;0.90;;
20945;SDS011;10632;51.276;7.116;2024-03-23T04:33:03;0.73;;;0.32;;
20945;SDS011;10632;51.276;7.116;2024-03-23T04:35:30;5.00;;;0.70;;
20945;SDS011;10632;51.276;7.116;2024-03-23T04:37:57;0.93;;;0.37;;
20945;SDS011;10632;51.276;7.116;2024-03-23T04:40:26;0.68;;;0.32;;
20945;SDS011;10632;51.276;7.116;2024-03-23T04:42:52;1.45;;;0.63;;
20945;SDS011;10632;51.276;7.116;2024-03-23T04:45:19;3.22;;;0.70;;
20945;SDS011;10632;51.276;7.116;2024-03-23T04:47:46;1.10;;;0.40;;
20945;SDS011;10632;51.276;7.116;2024-03-23T04:50:13;2.13;;;0.60;;
20945;SDS011;10632;51.276;7.116;2024-03-23T04:52:40;2.20;;;0.63;;
20945;SDS011;10632;51.276;7.116;2024-03-23T04:55:07;6.47;;;0.73;;
20945;SDS011;10632;51.276;7.116;2024-03-23T04:57:35;3.95;;;0.77;;
20945;SDS011;10632;51.276;7.116;2024-03-23T05:00:02;4.73;;;0.60;;
20945;SDS011;10632;51.276;7.116;2024-03-23T05:02:40;2.03;;;0.70;;
20945;SDS011;10632;51.276;7.116;2024-03-23T05:05:06;3.95;;;0.70;;
20945;SDS011;10632;51.276;7.116;2024-03-23T05:07:33;2.35;;;0.85;;
20945;SDS011;10632;51.276;7.116;2024-03-23T05:09:58;3.42;;;1.27;;
20945;SDS011;10632;51.276;7.116;2024-03-23T05:12:25;6.88;;;0.55;;
20945;SDS011;10632;51.276;7.116;2024-03-23T05:14:52;1.08;;;0.32;;
20945;SDS011;10632;51.276;7.116;2024-03-23T05:17:19;6.13;;;0.75;;
20945;SDS011;10632;51.276;7.116;2024-03-23T05:19:45;3.00;;;0.85;;
20945;SDS011;10632;51.276;7.116;2024-03-23T05:22:14;3.33;;;0.52;;
20945;SDS011;10632;51.276;7.116;2024-03-23T05:24:40;0.90;;;0.30;;
20945;SDS011;10632;51.276;7.116;2024-03-23T05:27:07;6.82;;;0.70;;
20945;SDS011;10632;51.276;7.116;2024-03-23T05:29:33;4.75;;;1.20;;
20945;SDS011;10632;51.276;7.116;2024-03-23T05:32:01;5.35;;;0.70;;
20945;SDS011;10632;51.276;7.116;2024-03-23T05:34:27;3.55;;;1.40;;
20945;SDS011;10632;51.276;7.116;2024-03-23T05:36:54;10.75;;;1.80;;
20945;SDS011;10632;51.276;7.116;2024-03-23T05:39:20;3.47;;;1.07;;
20945;SDS011;10632;51.276;7.116;2024-03-23T05:41:47;12.80;;;1.45;;
20945;SDS011;10632;51.276;7.116;2024-03-23T05:44:13;4.82;;;1.00;;
20945;SDS011;10632;51.276;7.116;2024-03-23T05:46:41;7.00;;;1.15;;
20945;SDS011;10632;51.276;7.116;2024-03-23T05:49:08;3.33;;;1.00;;
20945;SDS011;10632;51.276;7.116;2024-03-23T05:51:35;6.33;;;1.47;;
20945;SDS011;10632;51.276;7.116;2024-03-23T05:54:01;5.60;;;1.37;;
20945;SDS011;10632;51.276;7.116;2024-03-23T05:56:28;7.10;;;1.23;;
20945;SDS011;10632;51.276;7.116;2024-03-23T05:58:54;1.88;;;1.00;;
20945;SDS011;10632;51.276;7.116;2024-03-23T06:01:23;9.82;;;1.73;;
20945;SDS011;10632;51.276;7.116;2024-03-23T06:03:49;1.77;;;0.73;;
20945;SDS011;10632;51.276;7.116;2024-03-23T06:06:20;5.00;;;1.35;;
20945;SDS011;10632;51.276;7.116;2024-03-23T06:08:46;0.88;;;0.43;;
20945;SDS011;10632;51.276;7.116;2024-03-23T06:11:13;6.23;;;1.27;;
20945;SDS011;10632;51.276;7.116;2024-03-23T06:13:39;9.37;;;0.70;;
20945;SDS011;10632;51.276;7.116;2024-03-23T06:16:06;6.27;;;1.03;;
20945;SDS011;10632;51.276;7.116;2024-03-23T06:18:32;1.07;;;0.50;;
20945;SDS011;10632;51.276;7.116;2024-03-23T06:20:59;2.75;;;0.57;;
20945;SDS011;10632;51.276;7.116;2024-03-23T06:23:26;9.57;;;0.50;;
20945;SDS011;10632;51.276;7.116;2024-03-23T06:25:53;1.63;;;0.90;;
20945;SDS011;10632;51.276;7.116;2024-03-23T06:28:19;4.43;;;1.23;;
20945;SDS011;10632;51.276;7.116;2024-03-23T06:30:46;3.60;;;1.40;;
20945;SDS011;10632;51.276;7.116;2024-03-23T06:33:12;3.60;;;1.73;;
20945;SDS011;10632;51.276;7.116;2024-03-23T06:35:39;3.50;;;0.80;;
20945;SDS011;10632;51.276;7.116;2024-03-23T06:38:06;2.53;;;1.30;;
20945;SDS011;10632;51.276;7.116;2024-03-23T06:40:35;2.88;;;0.93;;
20945;SDS011;10632;51.276;7.116;2024-03-23T06:43:01;3.53;;;1.60;;
20945;SDS011;10632;51.276;7.116;2024-03-23T06:45:28;16.50;;;1.42;;
20945;SDS011;10632;51.276;7.116;2024-03-23T06:47:54;1.60;;;0.93;;
20945;SDS011;10632;51.276;7.116;2024-03-23T06:50:22;3.30;;;1.40;;
20945;SDS011;10632;51.276;7.116;2024-03-23T06:52:49;2.23;;;1.10;;
20945;SDS011;10632;51.276;7.116;2024-03-23T06:55:16;6.50;;;2.07;;
20945;SDS011;10632;51.276;7.116;2024-03-23T06:57:43;3.17;;;1.03;;
20945;SDS011;10632;51.276;7.116;2024-03-23T07:00:12;1.83;;;0.97;;
20945;SDS011;10632;51.276;7.116;2024-03-23T07:02:40;1.73;;;1.15;;
20945;SDS011;10632;51.276;7.116;2024-03-23T07:05:09;6.70;;;1.30;;
20945;SDS011;10632;51.276;7.116;2024-03-23T07:07:35;3.88;;;1.33;;
20945;SDS011;10632;51.276;7.116;2024-03-23T07:10:02;9.52;;;2.08;;
20945;SDS011;10632;51.276;7.116;2024-03-23T07:12:29;10.73;;;1.77;;
20945;SDS011;10632;51.276;7.116;2024-03-23T07:14:57;5.50;;;1.67;;
20945;SDS011;10632;51.276;7.116;2024-03-23T07:17:23;5.65;;;1.58;;
20945;SDS011;10632;51.276;7.116;2024-03-23T07:19:50;2.70;;;1.25;;
20945;SDS011;10632;51.276;7.116;2024-03-23T07:22:15;4.97;;;2.20;;
20945;SDS011;10632;51.276;7.116;2024-03-23T07:24:43;8.18;;;2.25;;
20945;SDS011;10632;51.276;7.116;2024-03-23T07:27:13;4.82;;;1.23;;
20945;SDS011;10632;51.276;7.116;2024-03-23T07:29:39;4.87;;;1.37;;
20945;SDS011;10632;51.276;7.116;2024-03-23T07:32:07;19.58;;;1.75;;
20945;SDS011;10632;51.276;7.116;2024-03-23T07:34:33;6.37;;;1.60;;
20945;SDS011;10632;51.276;7.116;2024-03-23T07:37:00;4.85;;;1.13;;
20945;SDS011;10632;51.276;7.116;2024-03-23T07:39:26;4.60;;;1.67;;
20945;SDS011;10632;51.276;7.116;2024-03-23T07:41:53;4.40;;;2.22;;
20945;SDS011;10632;51.276;7.116;2024-03-23T07:44:19;6.80;;;2.30;;
20945;SDS011;10632;51.276;7.116;2024-03-23T07:46:46;6.10;;;2.15;;
20945;SDS011;10632;51.276;7.116;2024-03-23T07:49:13;4.45;;;1.83;;
20945;SDS011;10632;51.276;7.116;2024-03-23T07:51:40;5.40;;;2.00;;
20945;SDS011;10632;51.276;7.116;2024-03-23T07:54:06;5.22;;;1.60;;
20945;SDS011;10632;51.276;7.116;2024-03-23T07:56:33;5.75;;;1.80;;
20945;SDS011;10632;51.276;7.116;2024-03-23T07:58:59;8.45;;;2.53;;
20945;SDS011;10632;51.276;7.116;2024-03-23T08:01:28;3.80;;;1.55;;
20945;SDS011;10632;51.276;7.116;2024-03-23T08:03:54;7.65;;;2.03;;
20945;SDS011;10632;51.276;7.116;2024-03-23T08:06:22;4.32;;;1.60;;
20945;SDS011;10632;51.276;7.116;2024-03-23T08:08:49;5.97;;;1.90;;
20945;SDS011;10632;51.276;7.116;2024-03-23T08:11:24;3.53;;;1.80;;
20945;SDS011;10632;51.276;7.116;2024-03-23T08:13:50;11.73;;;1.95;;
20945;SDS011;10632;51.276;7.116;2024-03-23T08:16:17;14.27;;;2.33;;
20945;SDS011;10632;51.276;7.116;2024-03-23T08:18:44;6.38;;;2.05;;
20945;SDS011;10632;51.276;7.116;2024-03-23T08:21:10;7.18;;;1.55;;
20945;SDS011;10632;51.276;7.116;2024-03-23T08:23:38;15.65;;;2.15;;
20945;SDS011;10632;51.276;7.116;2024-03-23T08:26:05;7.75;;;1.52;;
20945;SDS011;10632;51.276;7.116;2024-03-23T08:28:33;8.77;;;1.85;;
20945;SDS011;10632;51.276;7.116;2024-03-23T08:31:00;8.82;;;1.48;;
20945;SDS011;10632;51.276;7.116;2024-03-23T08:33:28;4.50;;;1.67;;
20945;SDS011;10632;51.276;7.116;2024-03-23T08:35:55;7.95;;;1.80;;
20945;SDS011;10632;51.276;7.116;2024-03-23T08:38:22;9.68;;;1.33;;
20945;SDS011;10632;51.276;7.116;2024-03-23T08:40:57;5.60;;;1.73;;
20945;SDS011;10632;51.276;7.116;2024-03-23T08:43:24;2.75;;;1.38;;
20945;SDS011;10632;51.276;7.116;2024-03-23T08:45:51;6.20;;;1.80;;
20945;SDS011;10632;51.276;7.116;2024-03-23T08:48:18;5.25;;;1.90;;
20945;SDS011;10632;51.276;7.116;2024-03-23T08:50:45;8.50;;;1.45;;
20945;SDS011;10632;51.276;7.116;2024-03-23T08:53:12;14.18;;;2.17;;
20945;SDS011;10632;51.276;7.116;2024-03-23T08:55:39;6.53;;;2.03;;
20945;SDS011;10632;51.276;7.116;2024-03-23T08:58:07;3.05;;;1.00;;
20945;SDS011;10632;51.276;7.116;2024-03-23T09:00:34;5.03;;;1.30;;
20945;SDS011;10632;51.276;7.116;2024-03-23T09:03:00;2.80;;;0.98;;
20945;SDS011;10632;51.276;7.116;2024-03-23T09:05:27;2.65;;;0.98;;
20945;SDS011;10632;51.276;7.116;2024-03-23T09:08:00;1.92;;;0.63;;
20945;SDS011;10632;51.276;7.116;2024-03-23T09:10:34;0.52;;;0.30;;
20945;SDS011;10632;51.276;7.116;2024-03-23T09:13:09;0.82;;;0.30;;
20945;SDS011;10632;51.276;7.116;2024-03-23T09:15:36;5.63;;;0.45;;
20945;SDS011;10632;51.276;7.116;2024-03-23T09:18:07;0.10;;;0.10;;
20945;SDS011;10632;51.276;7.116;2024-03-23T09:20:33;0.63;;;0.07;;
20945;SDS011;10632;51.276;7.116;2024-03-23T09:23:00;0.40;;;0.20;;
20945;SDS011;10632;51.276;7.116;2024-03-23T09:25:26;1.00;;;0.27;;
20945;SDS011;10632;51.276;7.116;2024-03-23T09:27:55;2.63;;;0.40;;
20945;SDS011;10632;51.276;7.116;2024-03-23T09:30:22;0.40;;;0.23;;
20945;SDS011;10632;51.276;7.116;2024-03-23T09:32:51;0.20;;;0.17;;
20945;SDS011;10632;51.276;7.116;2024-03-23T09:35:17;0.63;;;0.20;;
20945;SDS011;10632;51.276;7.116;2024-03-23T09:37:44;0.73;;;0.40;;
20945;SDS011;10632;51.276;7.116;2024-03-23T09:40:12;1.17;;;0.37;;
20945;SDS011;10632;51.276;7.116;2024-03-23T09:42:39;0.20;;;0.20;;
20945;SDS011;10632;51.276;7.116;2024-03-23T09:45:17;0.57;;;0.33;;
20945;SDS011;10632;51.276;7.116;2024-03-23T09:47:49;0.80;;;0.50;;
20945;SDS011;10632;51.276;7.116;2024-03-23T09:50:16;2.05;;;0.77;;
20945;SDS011;10632;51.276;7.116;2024-03-23T09:52:43;1.48;;;0.45;;
20945;SDS011;10632;51.276;7.116;2024-03-23T09:55:19;1.77;;;0.73;;
20945;SDS011;10632;51.276;7.116;2024-03-23T09:57:47;1.45;;;0.68;;
20945;SDS011;10632;51.276;7.116;2024-03-23T10:00:24;1.55;;;1.02;;
20945;SDS011;10632;51.276;7.116;2024-03-23T10:02:56;2.10;;;0.50;;
20945;SDS011;10632;51.276;7.116;2024-03-23T10:05:23;3.30;;;1.02;;
20945;SDS011;10632;51.276;7.116;2024-03-23T10:07:52;1.30;;;0.80;;
20945;SDS011;10632;51.276;7.116;2024-03-23T10:10:21;3.40;;;0.90;;
20945;SDS011;10632;51.276;7.116;2024-03-23T10:12:54;2.15;;;1.17;;
20945;SDS011;10632;51.276;7.116;2024-03-23T10:15:23;7.80;;;0.82;;
20945;SDS011;10632;51.276;7.116;2024-03-23T10:17:53;1.95;;;0.98;;
20945;SDS011;10632;51.276;7.116;2024-03-23T10:20:20;4.82;;;1.17;;
20945;SDS011;10632;51.276;7.116;2024-03-23T10:22:49;8.82;;;1.80;;
20945;SDS011;10632;51.276;7.116;2024-03-23T10:25:17;7.35;;;1.42;;
20945;SDS011;10632;51.276;7.116;2024-03-23T10:27:55;3.45;;;1.13;;
20945;SDS011;10632;51.276;7.116;2024-03-23T10:30:26;3.60;;;1.00;;
20945;SDS011;10632;51.276;7.116;2024-03-23T10:33:06;6.15;;;1.52;;
20945;SDS011;10632;51.276;7.116;2024-03-23T10:35:34;4.00;;;1.15;;
20945;SDS011;10632;51.276;7.116;2024-03-23T10:38:03;1.67;;;0.75;;
20945;SDS011;10632;51.276;7.116;2024-03-23T10:40:30;3.28;;;0.47;;
20945;SDS011;10632;51.276;7.116;2024-03-23T10:42:57;6.68;;;0.75;;
20945;SDS011;10632;51.276;7.116;2024-03-23T10:45:24;1.50;;;0.75;;
20945;SDS011;10632;51.276;7.116;2024-03-23T10:47:51;2.70;;;1.20;;
20945;SDS011;10632;51.276;7.116;2024-03-23T10:50:17;5.03;;;1.00;;
20945;SDS011;10632;51.276;7.116;2024-03-23T10:52:46;1.27;;;0.70;;
20945;SDS011;10632;51.276;7.116;2024-03-23T10:55:13;1.17;;;0.30;;
20945;SDS011;10632;51.276;7.116;2024-03-23T10:57:43;3.63;;;0.63;;
20945;SDS011;10632;51.276;7.116;2024-03-23T11:00:13;0.75;;;0.40;;
20945;SDS011;10632;51.276;7.116;2024-03-23T11:02:42;0.10;;;0.10;;
20945;SDS011;10632;51.276;7.116;2024-03-23T11:07:57;3.15;;;0.45;;
20945;SDS011;10632;51.276;7.116;2024-03-23T11:10:27;0.52;;;0.25;;
20945;SDS011;10632;51.276;7.116;2024-03-23T11:12:55;1.13;;;0.22;;
20945;SDS011;10632;51.276;7.116;2024-03-23T11:15:21;0.10;;;0.07;;
20945;SDS011;10632;51.276;7.116;2024-03-23T11:18:02;0.10;;;0.05;;
20945;SDS011;10632;51.276;7.116;2024-03-23T11:20:32;1.02;;;0.63;;
20945;SDS011;10632;51.276;7.116;2024-03-23T11:23:01;0.20;;;0.17;;
20945;SDS011;10632;51.276;7.116;2024-03-23T11:25:28;0.60;;;0.30;;
20945;SDS011;10632;51.276;7.116;2024-03-23T11:27:56;1.00;;;0.43;;
20945;SDS011;10632;51.276;7.116;2024-03-23T11:30:23;0.43;;;0.17;;
20945;SDS011;10632;51.276;7.116;2024-03-23T11:32:51;0.10;;;0.00;;
20945;SDS011;10632;51.276;7.116;2024-03-23T11:35:27;4.65;;;0.47;;
20945;SDS011;10632;51.276;7.116;2024-03-23T11:38:09;0.77;;;0.28;;
20945;SDS011;10632;51.276;7.116;2024-03-23T11:40:36;0.00;;;0.00;;
20945;SDS011;10632;51.276;7.116;2024-03-23T11:43:04;0.88;;;0.10;;
20945;SDS011;10632;51.276;7.116;2024-03-23T11:45:35;0.47;;;0.17;;
20945;SDS011;10632;51.276;7.116;2024-03-23T11:48:09;3.58;;;0.82;;
20945;SDS011;10632;51.276;7.116;2024-03-23T11:50:38;0.82;;;0.32;;
20945;SDS011;10632;51.276;7.116;2024-03-23T11:53:09;0.38;;;0.30;;
20945;SDS011;10632;51.276;7.116;2024-03-23T11:55:42;0.38;;;0.17;;
20945;SDS011;10632;51.276;7.116;2024-03-23T11:58:19;2.13;;;0.35;;
20945;SDS011;10632;51.276;7.116;2024-03-23T12:00:50;0.93;;;0.28;;
20945;SDS011;10632;51.276;7.116;2024-03-23T12:03:18;3.08;;;0.65;;
20945;SDS011;10632;51.276;7.116;2024-03-23T12:05:50;0.80;;;0.43;;
20945;SDS011;10632;51.276;7.116;2024-03-23T12:08:20;1.10;;;0.40;;
20945;SDS011;10632;51.276;7.116;2024-03-23T12:10:48;1.85;;;0.50;;
20945;SDS011;10632;51.276;7.116;2024-03-23T12:13:17;1.40;;;0.47;;
20945;SDS011;10632;51.276;7.116;2024-03-23T12:15:45;2.28;;;0.32;;
20945;SDS011;10632;51.276;7.116;2024-03-23T12:18:12;5.32;;;0.47;;
20945;SDS011;10632;51.276;7.116;2024-03-23T12:20:39;0.17;;;0.13;;
20945;SDS011;10632;51.276;7.116;2024-03-23T12:23:09;0.17;;;0.08;;
20945;SDS011;10632;51.276;7.116;2024-03-23T12:25:38;0.45;;;0.20;;
20945;SDS011;10632;51.276;7.116;2024-03-23T12:28:05;0.43;;;0.00;;
20945;SDS011;10632;51.276;7.116;2024-03-23T12:30:33;0.03;;;0.00;;
20945;SDS011;10632;51.276;7.116;2024-03-23T12:33:01;0.32;;;0.10;;
20945;SDS011;10632;51.276;7.116;2024-03-23T12:35:29;4.25;;;0.30;;
20945;SDS011;10632;51.276;7.116;2024-03-23T12:37:58;0.20;;;0.10;;
20945;SDS011;10632;51.276;7.116;2024-03-23T12:40:24;0.30;;;0.03;;
20945;SDS011;10632;51.276;7.116;2024-03-23T12:42:54;0.00;;;0.00;;
20945;SDS011;10632;51.276;7.116;2024-03-23T12:45:21;0.30;;;0.10;;
20945;SDS011;10632;51.276;7.116;2024-03-23T12:47:50;1.10;;;0.17;;
20945;SDS011;10632;51.276;7.116;2024-03-23T12:53:34;0.20;;;0.05;;
20945;SDS011;10632;51.276;7.116;2024-03-23T12:56:37;0.30;;;0.20;;
20945;SDS011;10632;51.276;7.116;2024-03-23T13:02:24;0.50;;;0.20;;
20945;SDS011;10632;51.276;7.116;2024-03-23T13:04:51;0.65;;;0.20;;
20945;SDS011;10632;51.276;7.116;2024-03-23T13:07:22;1.48;;;0.35;;
20945;SDS011;10632;51.276;7.116;2024-03-23T13:09:52;2.65;;;0.75;;
20945;SDS011;10632;51.276;7.116;2024-03-23T13:12:18;1.15;;;0.40;;
20945;SDS011;10632;51.276;7.116;2024-03-23T13:14:45;1.35;;;0.40;;
20945;SDS011;10632;51.276;7.116;2024-03-23T13:17:11;0.20;;;0.20;;
20945;SDS011;10632;51.276;7.116;2024-03-23T13:19:40;1.00;;;0.30;;
20945;SDS011;10632;51.276;7.116;2024-03-23T13:22:06;4.03;;;0.38;;
20945;SDS011;10632;51.276;7.116;2024-03-23T13:24:36;0.90;;;0.38;;
20945;SDS011;10632;51.276;7.116;2024-03-23T13:27:02;0.47;;;0.20;;
20945;SDS011;10632;51.276;7.116;2024-03-23T13:29:29;0.30;;;0.10;;
20945;SDS011;10632;51.276;7.116;2024-03-23T13:31:56;2.50;;;0.73;;
20945;SDS011;10632;51.276;7.116;2024-03-23T13:34:23;3.30;;;0.30;;
20945;SDS011;10632;51.276;7.116;2024-03-23T13:36:51;0.73;;;0.38;;
20945;SDS011;10632;51.276;7.116;2024-03-23T13:39:18;5.28;;;0.47;;
20945;SDS011;10632;51.276;7.116;2024-03-23T13:41:44;0.13;;;0.10;;
20945;SDS011;10632;51.276;7.116;2024-03-23T13:44:12;0.47;;;0.25;;
20945;SDS011;10632;51.276;7.116;2024-03-23T13:46:39;3.97;;;0.20;;
20945;SDS011;10632;51.276;7.116;2024-03-23T13:49:08;4.68;;;0.20;;
20945;SDS011;10632;51.276;7.116;2024-03-23T13:51:43;0.00;;;0.00;;
20945;SDS011;10632;51.276;7.116;2024-03-23T13:54:14;0.50;;;0.20;;
20945;SDS011;10632;51.276;7.116;2024-03-23T13:56:40;2.70;;;0.68;;
20945;SDS011;10632;51.276;7.116;2024-03-23T13:59:08;5.35;;;0.40;;
20945;SDS011;10632;51.276;7.116;2024-03-23T14:01:34;0.10;;;0.05;;
20945;SDS011;10632;51.276;7.116;2024-03-23T14:04:01;0.10;;;0.10;;
20945;SDS011;10632;51.276;7.116;2024-03-23T14:06:27;0.30;;;0.17;;
20945;SDS011;10632;51.276;7.116;2024-03-23T14:08:54;0.10;;;0.10;;
20945;SDS011;10632;51.276;7.116;2024-03-23T14:11:21;2.55;;;0.10;;
20945;SDS011;10632;51.276;7.116;2024-03-23T14:13:48;6.63;;;0.30;;
20945;SDS011;10632;51.276;7.116;2024-03-23T14:16:14;0.75;;;0.22;;
20945;SDS011;10632;51.276;7.116;2024-03-23T14:18:42;0.47;;;0.20;;
20945;SDS011;10632;51.276;7.116;2024-03-23T14:21:07;0.57;;;0.13;;
20945;SDS011;10632;51.276;7.116;2024-03-23T14:23:35;0.32;;;0.10;;
20945;SDS011;10632;51.276;7.116;2024-03-23T14:26:01;1.00;;;0.40;;
20945;SDS011;10632;51.276;7.116;2024-03-23T14:28:30;1.55;;;0.43;;
20945;SDS011;10632;51.276;7.116;2024-03-23T14:30:56;0.65;;;0.30;;
20945;SDS011;10632;51.276;7.116;2024-03-23T14:33:24;2.45;;;0.10;;
20945;SDS011;10632;51.276;7.116;2024-03-23T14:35:53;2.53;;;0.57;;
20945;SDS011;10632;51.276;7.116;2024-03-23T14:38:20;1.83;;;0.55;;
20945;SDS011;10632;51.276;7.116;2024-03-23T14:40:46;1.73;;;0.32;;
20945;SDS011;10632;51.276;7.116;2024-03-23T14:43:14;1.00;;;0.60;;
20945;SDS011;10632;51.276;7.116;2024-03-23T14:45:45;12.55;;;0.60;;
20945;SDS011;10632;51.276;7.116;2024-03-23T14:48:30;6.38;;;0.60;;
20945;SDS011;10632;51.276;7.116;2024-03-23T14:50:57;1.75;;;0.50;;
20945;SDS011;10632;51.276;7.116;2024-03-23T14:53:24;4.15;;;0.60;;
20945;SDS011;10632;51.276;7.116;2024-03-23T14:55:50;0.73;;;0.45;;
20945;SDS011;10632;51.276;7.116;2024-03-23T14:58:17;1.48;;;0.40;;
20945;SDS011;10632;51.276;7.116;2024-03-23T15:00:44;2.00;;;0.60;;
20945;SDS011;10632;51.276;7.116;2024-03-23T15:03:11;0.57;;;0.30;;
20945;SDS011;10632;51.276;7.116;2024-03-23T15:05:37;6.03;;;0.45;;
20945;SDS011;10632;51.276;7.116;2024-03-23T15:08:05;0.77;;;0.38;;
20945;SDS011;10632;51.276;7.116;2024-03-23T15:10:32;6.50;;;0.35;;
20945;SDS011;10632;51.276;7.116;2024-03-23T15:12:59;7.28;;;1.15;;
20945;SDS011;10632;51.276;7.116;2024-03-23T15:15:25;1.35;;;0.30;;
20945;SDS011;10632;51.276;7.116;2024-03-23T15:17:53;1.75;;;0.32;;
20945;SDS011;10632;51.276;7.116;2024-03-23T15:20:19;1.10;;;0.30;;
20945;SDS011;10632;51.276;7.116;2024-03-23T15:22:46;0.25;;;0.15;;
20945;SDS011;10632;51.276;7.116;2024-03-23T15:25:12;0.60;;;0.25;;
20945;SDS011;10632;51.276;7.116;2024-03-23T15:27:40;4.22;;;0.40;;
20945;SDS011;10632;51.276;7.116;2024-03-23T15:30:06;0.52;;;0.20;;
20945;SDS011;10632;51.276;7.116;2024-03-23T15:32:34;0.55;;;0.10;;
20945;SDS011;10632;51.276;7.116;2024-03-23T15:35:02;0.57;;;0.22;;
20945;SDS011;10632;51.276;7.116;2024-03-23T15:37:32;0.22;;;0.20;;
20945;SDS011;10632;51.276;7.116;2024-03-23T15:39:59;0.35;;;0.25;;
20945;SDS011;10632;51.276;7.116;2024-03-23T15:42:26;0.40;;;0.20;;
20945;SDS011;10632;51.276;7.116;2024-03-23T15:44:52;0.57;;;0.30;;
20945;SDS011;10632;51.276;7.116;2024-03-23T15:47:19;1.10;;;0.40;;
20945;SDS011;10632;51.276;7.116;2024-03-23T15:49:45;1.20;;;0.40;;
20945;SDS011;10632;51.276;7.116;2024-03-23T15:52:14;0.63;;;0.25;;
20945;SDS011;10632;51.276;7.116;2024-03-23T15:54:40;0.60;;;0.22;;
20945;SDS011;10632;51.276;7.116;2024-03-23T15:57:07;1.48;;;0.38;;